Williams, OR (97544)

7:26 PM PDT on August 30, 2016 (GMT -0700)
H^5 Ranch | | Change Station

Elev 1490 ft 42.25 °N, 123.28 °W | Updated 14 minutes ago

Smoke
Smoke
72.6 °F
Feels Like 77 °F
N
0.0
Wind Variable Wind from ESE
Gusts 1.0 mph

Today
High -- | Low -- °F
--% Chance of Precip.
Yesterday
High -- | Low -- °F
Precip. -- in
Pressure 29.90 in
Visibility 10.0 miles
Clouds Clear
Heat Index 77 °F
Dew Point 47 °F
Humidity 41%
Rainfall 0.00 in
Snow Depth Not available.
6:37 AM 7:49 PM
Waning Crescent, 2% visible
METAR KMFR 310153Z 29009KT 10SM FU CLR 28/06 A2993 RMK AO2 SLP124 T02780056
Pressure 29.90 in
Visibility 10.0 miles
Clouds Clear
Heat Index 77 °F
Dew Point 47 °F
Humidity 41%
Rainfall 0.00 in
Snow Depth Not available.
6:37 AM 7:49 PM
Waning Crescent, 2% visible
METAR KMFR 310153Z 29009KT 10SM FU CLR 28/06 A2993 RMK AO2 SLP124 T02780056

10-Day Weather Forecast

Almanac

Astronomy

Aug. 30, 2016 Rise Set
Actual Time
Civil Twilight
Nautical Twilight
Astronomical Twilight
Moon
Length of Visible Light
Length of Day
Tomorrow will be .
, % of the Moon is Illuminated

Today's Extremes

State Highs State Lows

Community

WunderPhotos

Upload Photos

1,935,997 photos uploaded!

WunderBlog® & News

Nearby

Air Quality

  Air Quality AQ Index Pollutant
Not available.

Snow Depth

Station Depth Elevation

Earthquake Activity

City Distance Mag. Time & Date
Minimum magnitude displayed is 2.5.

Coastal Water Temperatures

Place Temperature

Stations

Nearby Weather Stations

Station Location Temp. Windchill Dew Point Humidity Wind Precip. Elev Updated Type
                   

Watches & Warnings

There are currently no watches in effect.